Green Creek, Illinois
Current Conditions -  °F | °C
As of 11:35 PM on Saturday 22 Nov 2014 (Local Time) from K1H2 Reporting Station
Overcast Overcast  
Wind Chill: 51°   Ceiling: 7000
Heat Index: 51°   Visibility: NA
Dew Point: 41°   Wind: 6mph
Humidity: 68%   Direction: 150°SSE
Pressure: 29.93"   Gusts: NA
Location:  39.1183°N, 88.6059°W
Report Text: K1H2 230535Z AUTO 15005KT OVC070 11/05 A2993 RMK AO2 T01070050 PWINO
Loading
Personal Weather Stations






























Interactive Weather Map New forecast layout! Learn more

10-Day Weather Forecast

Advertisements
Track Severe Weather on mobile